createdAt,value
2022-10-31T06:03:27.050Z,35.22
2022-10-31T06:08:28.559Z,34.05
2022-10-31T06:10:57.290Z,35.97
2022-10-31T06:13:45.487Z,33.33
2022-10-31T06:16:25.224Z,40.97
2022-10-31T06:18:55.007Z,43.45
2022-10-31T06:21:21.851Z,45.58
2022-10-31T06:23:51.423Z,42.60
2022-10-31T06:26:44.505Z,36.78
2022-10-31T06:29:11.081Z,41.83
2022-10-31T06:31:57.359Z,43.10
2022-10-31T06:34:24.009Z,43.15
2022-10-31T06:36:51.171Z,42.65
2022-10-31T06:39:21.371Z,41.83
2022-10-31T06:41:49.661Z,45.15
2022-10-31T06:44:19.631Z,45.17
2022-10-31T06:46:56.139Z,41.40
2022-10-31T06:49:41.117Z,43.40
2022-10-31T06:52:20.772Z,38.40
2022-10-31T06:54:47.320Z,43.70
2022-10-31T06:57:15.377Z,44.88
2022-10-31T06:59:42.083Z,51.67
2022-10-31T07:02:11.288Z,48.13
2022-10-31T07:04:39.601Z,52.30
2022-10-31T07:07:07.564Z,47.00
2022-10-31T07:09:35.485Z,45.88
2022-10-31T07:12:04.709Z,43.13
2022-10-31T07:14:35.036Z,51.00
2022-10-31T07:17:02.879Z,61.47
2022-10-31T07:19:36.602Z,68.57
2022-10-31T07:22:03.846Z,60.08
2022-10-31T07:24:31.446Z,56.88
2022-10-31T07:27:17.423Z,64.50
2022-10-31T07:29:45.896Z,64.50
2022-10-31T07:32:13.562Z,63.75
2022-10-31T07:34:47.543Z,79.50
2022-10-31T07:37:23.316Z,73.20
2022-10-31T07:39:52.128Z,80.00
2022-10-31T07:42:19.346Z,72.45
2022-10-31T07:44:46.146Z,91.50
2022-10-31T07:47:42.103Z,69.93
2022-10-31T07:50:29.818Z,87.22
2022-10-31T07:53:17.631Z,80.30
2022-10-31T07:55:51.743Z,88.32
2022-10-31T07:58:19.959Z,96.70
2022-10-31T08:00:49.014Z,85.40
2022-10-31T08:03:28.257Z,95.00
2022-10-31T08:06:10.536Z,82.47
2022-10-31T08:08:39.713Z,89.93
2022-10-31T08:11:08.896Z,94.33
2022-10-31T08:13:35.762Z,86.65
2022-10-31T08:16:05.539Z,82.95
2022-10-31T08:18:38.354Z,81.78
2022-10-31T08:21:08.736Z,80.30
2022-10-31T08:23:35.759Z,93.95
2022-10-31T08:26:03.460Z,85.90
2022-10-31T08:28:30.628Z,85.03
2022-10-31T08:30:59.484Z,94.55
2022-10-31T08:33:41.718Z,87.03
2022-10-31T08:36:08.835Z,86.72
2022-10-31T08:38:56.568Z,79.80
2022-10-31T08:41:28.383Z,86.45
2022-10-31T08:43:55.105Z,80.55
2022-10-31T08:46:22.238Z,79.18
2022-10-31T08:48:49.888Z,81.72
2022-10-31T08:51:18.243Z,88.03
2022-10-31T08:53:45.230Z,78.22
2022-10-31T08:56:35.255Z,77.68
2022-10-31T08:59:05.534Z,72.30
2022-10-31T09:01:53.049Z,73.88
2022-10-31T09:04:19.822Z,82.15
2022-10-31T09:09:34.283Z,75.28
2022-10-31T09:12:01.486Z,72.88
2022-10-31T09:14:46.818Z,75.28
2022-10-31T09:17:31.220Z,81.28
2022-10-31T09:20:23.015Z,88.07
2022-10-31T09:22:58.292Z,82.47
2022-10-31T09:25:25.253Z,82.13
2022-10-31T09:28:16.185Z,75.13
2022-10-31T09:30:51.092Z,78.40
2022-10-31T09:33:33.012Z,76.40
2022-10-31T09:36:20.223Z,72.53
2022-10-31T09:38:46.751Z,70.25
2022-10-31T09:41:15.442Z,67.68
2022-10-31T09:44:09.629Z,62.03
2022-10-31T09:47:12.226Z,66.82
2022-10-31T09:49:49.280Z,56.80
2022-10-31T09:52:25.867Z,62.00
2022-10-31T09:55:01.173Z,48.72
2022-10-31T09:57:35.551Z,48.95
2022-10-31T10:00:05.898Z,49.47
2022-10-31T10:03:14.883Z,50.80
2022-10-31T10:05:58.554Z,38.13
2022-10-31T10:08:37.497Z,42.63
2022-10-31T10:11:59.371Z,36.75
2022-10-31T10:14:31.987Z,28.05
2022-10-31T10:17:13.760Z,34.33
2022-10-31T10:19:46.775Z,34.50
2022-10-31T10:22:17.012Z,27.60
2022-10-31T10:25:02.722Z,30.10
2022-10-31T10:27:48.564Z,28.80
2022-10-31T10:30:24.501Z,24.27
2022-10-31T10:32:55.753Z,29.80
2022-10-31T10:35:31.412Z,25.02
2022-10-31T10:38:16.212Z,22.50
2022-10-31T10:40:44.454Z,24.17
2022-10-31T10:43:39.398Z,25.98
2022-10-31T10:46:31.039Z,21.40
2022-10-31T10:49:13.697Z,23.30
2022-10-31T10:51:58.315Z,23.50
2022-10-31T10:54:50.892Z,24.17
2022-10-31T10:57:38.156Z,19.73
2022-10-31T11:00:31.423Z,20.90
2022-10-31T11:02:58.315Z,22.67
2022-10-31T11:05:37.705Z,24.45
2022-10-31T11:08:05.602Z,21.55
2022-10-31T11:10:33.510Z,25.80
2022-10-31T11:13:04.788Z,21.73
2022-10-31T11:15:38.051Z,19.90
2022-10-31T11:18:05.555Z,23.33
2022-10-31T11:20:37.181Z,21.73
2022-10-31T11:23:18.627Z,24.63
2022-10-31T11:26:01.231Z,23.92
2022-10-31T11:28:35.852Z,18.80
2022-10-31T11:31:13.280Z,22.73
2022-10-31T11:33:45.631Z,23.60
2022-10-31T11:36:28.368Z,25.55
2022-10-31T11:38:55.805Z,27.35
2022-10-31T11:41:32.972Z,29.27
2022-10-31T11:44:05.421Z,23.67
2022-10-31T11:46:36.939Z,22.02
2022-10-31T11:49:05.591Z,23.95
2022-10-31T11:51:35.973Z,20.67
2022-10-31T11:54:05.094Z,24.25
2022-10-31T11:56:42.713Z,25.08
2022-10-31T11:59:23.055Z,20.02
2022-10-31T12:01:52.542Z,20.60
2022-10-31T12:04:21.082Z,25.15
2022-10-31T12:06:48.890Z,25.23
2022-10-31T12:09:18.508Z,23.08
2022-10-31T12:12:07.082Z,23.23
2022-10-31T12:14:45.729Z,20.65
2022-10-31T12:17:21.275Z,19.67
2022-10-31T12:20:08.860Z,18.90
2022-10-31T12:22:49.182Z,17.45
2022-10-31T12:25:35.530Z,16.33
2022-10-31T12:28:25.722Z,24.02
2022-10-31T12:31:19.367Z,22.45
2022-10-31T12:34:11.503Z,15.90
2022-10-31T12:37:04.145Z,20.35
2022-10-31T12:39:58.422Z,25.13
2022-10-31T12:42:40.480Z,20.08
2022-10-31T12:45:34.268Z,20.75
2022-10-31T12:48:19.368Z,26.33
2022-10-31T12:50:53.601Z,24.83
2022-10-31T12:53:35.767Z,22.25
2022-10-31T12:56:34.916Z,20.52
2022-10-31T13:01:56.346Z,29.08
2022-10-31T13:04:46.571Z,21.63
2022-10-31T13:07:20.514Z,19.10
2022-10-31T13:10:04.796Z,23.27
2022-10-31T13:12:37.496Z,20.25
2022-10-31T13:15:26.829Z,17.63
2022-10-31T13:18:32.248Z,24.70
2022-10-31T13:21:01.154Z,20.58
2022-10-31T13:23:50.241Z,16.88
2022-10-31T13:26:39.299Z,20.45
2022-10-31T13:29:32.675Z,14.70
2022-10-31T13:32:05.019Z,18.85
2022-10-31T13:34:39.866Z,14.52
2022-10-31T13:37:25.077Z,17.40
2022-10-31T13:40:10.534Z,22.52
2022-10-31T13:42:55.837Z,15.52
2022-10-31T13:45:25.177Z,17.05
2022-10-31T13:48:17.069Z,15.80
2022-10-31T13:50:56.365Z,15.63
2022-10-31T13:53:36.336Z,18.00
2022-10-31T13:56:09.108Z,13.30
2022-10-31T13:58:37.561Z,23.42
2022-10-31T14:01:07.174Z,15.95
2022-10-31T14:04:03.633Z,20.23
2022-10-31T14:06:37.103Z,13.60
2022-10-31T14:09:05.024Z,14.73
2022-10-31T14:11:36.094Z,19.88
2022-10-31T14:14:11.885Z,22.20
2022-10-31T14:16:43.420Z,16.33
2022-10-31T14:19:19.959Z,19.95
2022-10-31T14:21:48.354Z,17.35
2022-10-31T14:24:24.343Z,18.67
2022-10-31T14:27:01.688Z,20.27
2022-10-31T14:29:34.088Z,19.30
2022-10-31T14:32:14.923Z,18.20
2022-10-31T14:34:44.686Z,18.35
2022-10-31T14:39:53.119Z,18.95
2022-10-31T14:42:52.676Z,16.50
2022-10-31T14:45:32.695Z,17.17
2022-10-31T14:48:11.524Z,16.95
2022-10-31T14:50:38.143Z,15.83
2022-10-31T14:53:07.546Z,17.48
2022-10-31T14:55:34.460Z,20.10
2022-10-31T14:58:07.336Z,19.58
2022-10-31T15:00:36.429Z,16.88
2022-10-31T15:05:41.633Z,22.15
2022-10-31T15:08:26.752Z,19.38
2022-10-31T15:10:53.345Z,14.57
2022-10-31T15:13:25.626Z,23.40
2022-10-31T15:15:55.508Z,21.27
2022-10-31T15:18:27.443Z,21.67
2022-10-31T15:20:56.398Z,19.92
2022-10-31T15:23:27.081Z,23.63
2022-10-31T15:26:01.779Z,47.53
2022-10-31T15:28:29.169Z,20.35
2022-10-31T15:31:02.017Z,16.23
2022-10-31T15:33:37.804Z,17.92
2022-10-31T15:36:06.959Z,18.00
2022-10-31T15:38:34.315Z,17.50
2022-10-31T15:41:43.088Z,18.52
2022-10-31T15:44:22.317Z,16.85
2022-10-31T15:46:57.945Z,16.52
2022-10-31T15:49:51.398Z,17.15
2022-10-31T15:52:27.382Z,19.27
2022-10-31T15:55:06.558Z,19.88
2022-10-31T16:00:00.994Z,17.08
2022-10-31T16:02:28.720Z,19.50
2022-10-31T16:05:01.941Z,19.35
2022-10-31T16:07:30.833Z,20.73
2022-10-31T16:10:00.157Z,15.73
2022-10-31T16:12:37.619Z,16.02
2022-10-31T16:15:05.808Z,16.77
2022-10-31T16:17:33.283Z,20.60
2022-10-31T16:20:03.596Z,21.70
2022-10-31T16:22:38.934Z,14.82
2022-10-31T16:25:26.371Z,17.30
2022-10-31T16:27:55.193Z,17.20
2022-10-31T16:30:48.497Z,23.83
2022-10-31T16:33:37.478Z,15.50
2022-10-31T16:36:35.190Z,15.25
2022-10-31T16:39:03.196Z,21.13
2022-10-31T16:41:29.758Z,20.13
2022-10-31T16:43:57.203Z,16.80
2022-10-31T16:46:26.603Z,14.30
2022-10-31T16:48:54.330Z,19.20
2022-10-31T16:51:21.239Z,18.92
2022-10-31T16:53:48.429Z,17.05
2022-10-31T16:56:28.803Z,14.45
2022-10-31T16:58:56.020Z,13.95
2022-10-31T17:01:23.027Z,13.27
2022-10-31T17:03:50.425Z,13.32
2022-10-31T17:06:17.715Z,13.68
2022-10-31T17:08:45.102Z,15.25
2022-10-31T17:11:29.493Z,17.42
2022-10-31T17:13:57.663Z,16.25
2022-10-31T17:16:24.256Z,15.52
2022-10-31T17:18:51.423Z,20.98
2022-10-31T17:21:26.314Z,22.30
2022-10-31T17:23:54.035Z,19.42
2022-10-31T17:26:20.911Z,15.15
2022-10-31T17:28:48.673Z,18.55
2022-10-31T17:31:36.585Z,17.27
2022-10-31T17:34:05.471Z,19.77
2022-10-31T17:36:35.955Z,28.42
2022-10-31T17:39:05.750Z,23.98
2022-10-31T17:44:00.456Z,21.75
2022-10-31T17:46:28.317Z,20.65
2022-10-31T17:48:55.694Z,23.10
2022-10-31T17:51:22.390Z,21.27
2022-10-31T17:53:49.602Z,20.38
2022-10-31T17:56:16.178Z,22.10
2022-10-31T17:58:43.528Z,21.38
2022-10-31T18:01:16.579Z,23.20
2022-10-31T18:03:44.474Z,31.85
2022-10-31T18:06:14.297Z,24.67
2022-10-31T18:08:41.671Z,23.77
2022-10-31T18:11:10.836Z,27.60
2022-10-31T18:13:39.103Z,22.88
2022-10-31T18:16:15.509Z,21.60
2022-10-31T18:18:42.743Z,22.67
2022-10-31T18:21:09.895Z,29.55
2022-10-31T18:23:40.230Z,27.10
2022-10-31T18:26:06.778Z,23.88
2022-10-31T18:28:33.940Z,29.38
2022-10-31T18:31:00.679Z,22.20
2022-10-31T18:33:28.410Z,26.42
2022-10-31T18:35:55.783Z,27.67
2022-10-31T18:38:23.818Z,20.98
2022-10-31T18:40:51.355Z,22.90
2022-10-31T18:43:18.636Z,27.77
2022-10-31T18:45:48.133Z,24.27
2022-10-31T18:48:17.796Z,26.50
2022-10-31T18:50:44.426Z,22.98
2022-10-31T18:53:13.807Z,25.98
2022-10-31T18:55:45.372Z,23.50
2022-10-31T18:58:16.779Z,26.85
2022-10-31T19:00:43.705Z,20.95
2022-10-31T19:03:10.950Z,22.33
2022-10-31T19:05:38.069Z,24.55
2022-10-31T19:08:06.013Z,21.13
2022-10-31T19:10:39.773Z,19.83
2022-10-31T19:13:07.332Z,18.00
2022-10-31T19:15:38.678Z,16.08
2022-10-31T19:18:06.030Z,22.25
2022-10-31T19:20:38.285Z,19.13
2022-10-31T19:23:05.223Z,18.95
2022-10-31T19:25:37.095Z,23.15
2022-10-31T19:28:06.277Z,19.70
2022-10-31T19:35:29.751Z,19.95
2022-10-31T19:37:56.427Z,17.63
2022-10-31T19:40:23.642Z,19.30
2022-10-31T19:42:50.168Z,25.77
2022-10-31T19:45:20.008Z,24.00
2022-10-31T19:47:46.986Z,20.88
2022-10-31T19:50:13.522Z,23.83
2022-10-31T19:52:40.710Z,22.10
2022-10-31T19:55:09.817Z,19.60
2022-10-31T19:58:00.258Z,18.20
2022-10-31T20:00:24.554Z,23.33
2022-10-31T20:02:51.114Z,24.90
2022-10-31T20:05:18.668Z,30.48
2022-10-31T20:07:45.248Z,25.48
2022-10-31T20:10:12.342Z,24.40
2022-10-31T20:12:39.615Z,17.17
2022-10-31T20:15:06.676Z,21.50
2022-10-31T20:17:33.952Z,29.40
2022-10-31T20:20:17.977Z,22.58
2022-10-31T20:22:49.758Z,18.98
2022-10-31T20:25:17.912Z,23.38
2022-10-31T20:27:44.579Z,22.15
2022-10-31T20:30:12.119Z,20.75
2022-10-31T20:32:38.795Z,18.67
2022-10-31T20:35:06.453Z,19.40
2022-10-31T20:37:33.085Z,18.80
2022-10-31T20:40:00.246Z,19.38
2022-10-31T20:42:26.810Z,25.02
2022-10-31T20:44:53.660Z,20.67
2022-10-31T20:47:24.935Z,23.83
2022-10-31T20:49:53.037Z,17.20
2022-10-31T20:52:20.168Z,20.38
2022-10-31T20:54:46.794Z,19.15
2022-10-31T20:57:20.329Z,17.25
2022-10-31T20:59:51.499Z,16.65
2022-10-31T21:02:18.403Z,18.42
2022-10-31T21:04:45.794Z,14.85
2022-10-31T21:07:12.409Z,22.13
2022-10-31T21:09:39.286Z,18.15
2022-10-31T21:12:07.069Z,18.42
2022-10-31T21:14:33.982Z,19.63
2022-10-31T21:17:01.254Z,22.83
2022-10-31T21:19:27.855Z,17.23
2022-10-31T21:21:55.074Z,19.95
2022-10-31T21:24:23.185Z,17.95
2022-10-31T21:26:52.358Z,20.13
2022-10-31T21:29:20.287Z,16.52
